20 mai 2022

Temps Code Temps Temp. Vue Des nuages Vent METAR/SPECI
17:25
V
13 °C 10 km+ 3.300 ft 270°   270° 5 kt METAR EBFN 201525Z AUTO 27005KT 9999 OVC033/// 13/10 Q1018 BLU
17:18
V
13 °C 10 km+ 3.000 ft 290°   290° 6 kt METAR EBFN 201518Z AUTO 29006KT 9999 OVC030/// 13/10 Q1018 BLU
16:55
M
12 °C 10 km+ 2.400 ft 290°   290° 12 kt METAR EBFN 201455Z AUTO 29012KT 9999 OVC024/// 12/10 Q1018 WHT
16:25
I
12 °C 10 km+ 900 ft 290°   290° 14 kt METAR EBFN 201425Z AUTO 29014KT 9999 BKN009/// OVC029/// 12/10 Q1018 GRN
16:07
M
12 °C 10 km+ 2.300 ft 300°   300° 15 kt METAR EBFN 201407Z AUTO 30015KT 9999 SCT008/// BKN023/// OVC042/// 12/10 Q1018 GRN
15:55
M
12 °C 10 km+ 2.300 ft 300°   300° 10 kt METAR EBFN 201355Z AUTO 30010KT 9999 FEW010/// BKN023/// BKN039/// 12/11 Q1017 WHT
15:25
V
12 °C 10 km+ 9.300 ft 330°   330° 9 kt METAR EBFN 201325Z AUTO 33009KT 9999 FEW007/// BKN093/// 12/10 Q1017 BLU
14:55
I
11 °C 10 km+ 700 ft 320°   320° 15 kt METAR EBFN 201255Z AUTO 32015KT 9999 -RA BKN007/// BKN042/// 11/10 Q1016 GRN
14:40
I
11 °C 4,5 km 900 ft 320°   320° 13 24 kt METAR EBFN 201240Z 32013G24KT 4500 SHRA FEW006 BKN009 BKN038 11/10 Q1016 GRN FCST CANCEL
14:25
I
10 °C 4 km 900 ft 310°   310° 19 kt METAR EBFN 201225Z 31019KT 4000 SHRA FEW006 BKN009 BKN038 10/10 Q1017 GRN GRN TEMPO YLO
14:24
I
10 °C 4 km 900 ft 310°   310° 20 kt METAR EBFN 201224Z 31020KT 4000 SHRA FEW006 BKN009 BKN038 10/09 Q1017 GRN GRN TEMPO YLO
14:03
I
11 °C 3 km 900 ft 310°   310° 20 kt METAR EBFN 201203Z 31020KT 3000 RA FEW006 BKN009 BKN037 11/10 Q1016 YLO YLO TEMPO GRN
13:55
I
11 °C 4 km 900 ft 310°   310° 18 kt METAR EBFN 201155Z 31018KT 4000 RA FEW006 BKN009 BKN037 11/10 Q1016 GRN GRN TEMPO YLO
13:25
M
13 °C 6 km 4.000 ft 340°   340° 8 kt METAR EBFN 201125Z 34008KT 6000 -RA SCT006 SCT023 BKN040 13/12 Q1015 YLO YLO TEMPO GRN
13:09
I
14 °C 4,5 km 2.300 ft 310°   310° 7 kt METAR EBFN 201109Z 31007KT 4500 -RA FEW016 BKN023 14/12 Q1015 GRN GRN TEMPO YLO
12:55
M
14 °C 6 km 2.400 ft 330°   330° 5 kt METAR EBFN 201055Z 33005KT 6000 -TSRA FEW016 BKN024 14/12 Q1015 WHT WHT TEMPO YLO
12:53
M
14 °C 6 km 2.400 ft 300°   300° 6 kt METAR EBFN 201053Z 30006KT 6000 -TSRA FEW016 BKN024 14/12 Q1015 WHT WHT TEMPO YLO
12:33
I
15 °C 3,5 km 4.500 ft 280°   280° 3 kt METAR EBFN 201033Z 28003KT 3500 RA BKN045 BKN070 15/11 Q1016 YLO YLO BECMG GRN
12:25
I
15 °C 4 km 4.500 ft 310°   310° 6 kt METAR EBFN 201025Z 31006KT 4000 RA BKN045 BKN070 15/11 Q1016 GRN GRN TEMPO YLO
12:19
I
15 °C 4 km 4.500 ft 340°   340° 8 kt METAR EBFN 201019Z 34008KT 4000 RA BKN045 BKN070 15/12 Q1015 GRN GRN TEMPO YLO
11:55
I
16 °C 4,5 km 4.500 ft 350°   350° 7 kt METAR EBFN 200955Z 35007KT 4500 RA BKN045 BKN070 16/14 Q1015 GRN GRN
11:43
I
16 °C 4,5 km 4.500 ft 330°   330° 4 kt METAR EBFN 200943Z 33004KT 4500 RA BKN045 BKN070 16/14 Q1016 GRN GRN
11:25
M
17 °C 6 km 5.000 ft Var   Var 2 kt METAR EBFN 200925Z VRB02KT 6000 BKN050 BKN070 17/14 Q1016 WHT WHT TEMPO GRN
11:19
M
16 °C 6 km 7.000 ft 090°   090° 4 kt METAR EBFN 200919Z 09004KT 6000 SCT055 BKN070 BKN180 16/14 Q1016 WHT WHT TEMPO GRN
11:08
V
16 °C 8 km 7.000 ft 100°   100° 4 kt METAR EBFN 200908Z 10004KT 8000 SCT057 BKN070 BKN180 16/13 Q1016 BLU BLU TEMPO GRN
10:55
V
17 °C 8 km 7.000 ft 110°   110° 6 kt METAR EBFN 200855Z 11006KT 8000 SCT057 BKN070 BKN180 17/13 Q1016 BLU BLU TEMPO WHT
10:25
M
17 °C 7 km 8.000 ft 080°   080° 6 kt METAR EBFN 200825Z 08006KT 7000 SCT060 BKN080 BKN180 17/13 Q1017 WHT BLU TEMPO WHT
09:55
M
16 °C 5 km 8.000 ft 050°   050° 3 kt METAR EBFN 200755Z 05003KT 5000 BR SCT060 BKN080 BKN180 16/14 Q1018 WHT WHT
09:48
M
16 °C 5 km 14.000 ft Var   Var 2 kt METAR EBFN 200748Z VRB02KT 5000 BR SCT060 BKN140 16/14 Q1018 WHT WHT
09:25
I
15 °C 4,5 km 14.000 ft Var   Var 2 kt METAR EBFN 200725Z VRB02KT 4500 BR SCT060 BKN140 15/14 Q1018 GRN GRN BECMG WHT
09:03
I
14 °C 4,5 km 14.000 ft Var   Var 1 kt METAR EBFN 200703Z VRB01KT 4500 BR SCT060 BKN140 14/13 Q1019 GRN GRN BECMG WHT
08:55
I
14 °C 3,6 km 7.000 ft Var   Var 1 kt METAR EBFN 200655Z AUTO VRB01KT 3600 BR BKN070/// BKN140/// 14/13 Q1019 YLO
08:25
I
14 °C 3,3 km 14.000 ft Var   Var 2 kt METAR EBFN 200625Z AUTO VRB02KT 3300 BR SCT069/// BKN140/// 14/13 Q1019 YLO
08:12
I
13 °C 4,8 km 14.000 ft Var   Var 1 kt METAR EBFN 200612Z AUTO VRB01KT 4800 SCT068/// BKN140/// 13/12 Q1019 GRN
07:55
M
13 °C 5 km 14.000 ft Var   Var 1 kt METAR EBFN 200555Z VRB01KT 5000 BR SCT070 BKN140 13/12 Q1019 WHT WHT BECMG BLU
07:53
M
13 °C 5 km 14.000 ft Var   Var 1 kt METAR EBFN 200553Z VRB01KT 5000 BR SCT070 BKN140 13/12 Q1019 WHT WHT BECMG BLU
07:25
I
12 °C 4,5 km 19.000 ft Var   Var 2 kt METAR EBFN 200525Z VRB02KT 4500 BR FEW080 BKN190 12/12 Q1020 GRN GRN BECMG WHT
07:23
I
12 °C 4,5 km 19.000 ft Var   Var 1 kt METAR EBFN 200523Z VRB01KT 4500 BR FEW080 BKN190 12/12 Q1020 GRN GRN BECMG WHT
06:55
I
11 °C 4 km 19.000 ft Var   Var 2 kt METAR EBFN 200455Z VRB02KT 4000 FEW080 BKN190 11/11 Q1019 GRN GRN TEMPO YLO
06:42
I
11 °C 4 km 19.000 ft 100°   100° 3 kt METAR EBFN 200442Z 10003KT 4000 FEW080 BKN190 11/10 Q1019 GRN GRN TEMPO YLO
06:25
I
11 °C 3,6 km - Var   Var 2 kt METAR EBFN 200425Z AUTO VRB02KT 3600 BR FEW077/// 11/10 Q1020 YLO
06:22
I
11 °C 3,5 km - Var   Var 2 kt METAR EBFN 200422Z AUTO VRB02KT 3500 BR FEW077/// 11/10 Q1020 YLO
06:04
I
10 °C 4,5 km - Var   Var 1 kt METAR EBFN 200404Z AUTO VRB01KT 4500 FEW078/// SCT170/// 10/10 Q1020 GRN
05:55
M
11 °C 5 km - Var   Var 1 kt METAR EBFN 200355Z AUTO VRB01KT 5000 BR FEW079/// SCT170/// 11/10 Q1020 WHT
05:53
I
11 °C 3,6 km 17.000 ft Var   Var 2 kt METAR EBFN 200353Z AUTO VRB02KT 3600 BR FEW079/// BKN170/// 11/10 Q1020 YLO
05:37
I
11 °C 4,9 km 7.000 ft 130°   130° 3 kt METAR EBFN 200337Z AUTO 13003KT 4900 BKN070/// BKN170/// 11/10 Q1020 GRN
05:25
M
11 °C 6 km 17.000 ft 150°   150° 3 kt METAR EBFN 200325Z AUTO 15003KT 6000 SCT070/// BKN170/// 11/11 Q1020 WHT
05:13
I
11 °C 4,9 km - Var   Var 2 kt METAR EBFN 200313Z AUTO VRB02KT 4900 FEW069/// 11/10 Q1020 GRN
04:55
M
11 °C 6 km - 140°   140° 3 kt METAR EBFN 200255Z AUTO 14003KT 6000 FEW076/// 11/10 Q1020 WHT
04:33
M
11 °C 7 km 18.000 ft Var   Var 1 kt METAR EBFN 200233Z AUTO VRB01KT 7000 SCT072/// BKN180/// 11/10 Q1020 WHT
04:25
V
11 °C 10 km+ 18.000 ft Var   Var 1 kt METAR EBFN 200225Z AUTO VRB01KT 9999 SCT072/// BKN180/// BKN200/// 11/11 Q1020 BLU
03:55
M
11 °C 7 km 20.000 ft Var   Var 1 kt METAR EBFN 200155Z AUTO VRB01KT 7000 FEW076/// SCT160/// BKN200/// 11/11 Q1020 WHT
03:33
M
11 °C 7 km 19.000 ft Var   Var 1 kt METAR EBFN 200133Z AUTO VRB01KT 7000 SCT073/// BKN190/// 11/11 Q1021 WHT
03:25
V
11 °C 10 km+ 19.000 ft Var   Var 1 kt METAR EBFN 200125Z AUTO VRB01KT 9999 FEW073/// BKN190/// 11/11 Q1021 BLU
02:55
V
11 °C 9 km 17.000 ft 150°   150° 3 kt METAR EBFN 200055Z AUTO 15003KT 9000 BKN170/// 11/10 Q1021 BLU
02:45
V
11 °C 8 km 18.000 ft Var   Var 2 kt METAR EBFN 200045Z AUTO VRB02KT 8000 BKN180/// 11/10 Q1021 BLU
02:33
M
11 °C 7 km 18.000 ft 120°   120° 3 kt METAR EBFN 200033Z AUTO 12003KT 7000 BKN180/// 11/10 Q1021 WHT
02:20
M
11 °C 7 km - 090°   090° 4 kt METAR EBFN 200020Z AUTO 09004KT 7000 SCT200/// 11/10 Q1021 WHT
01:55
V
13 °C 10 km+ - Var   Var 2 kt METAR EBFN 192355Z AUTO VRB02KT 9999 SCT240/// 13/11 Q1021 BLU
01:25
V
13 °C 10 km+ - Var   Var 2 kt METAR EBFN 192325Z AUTO VRB02KT 9999 FEW230/// 13/11 Q1021 BLU
00:55
V
13 °C 10 km+ 24.000 ft Var   Var 2 kt METAR EBFN 192255Z AUTO VRB02KT 9999 BKN240/// 13/11 Q1021 BLU
00:25
V
13 °C 10 km+ - 240°   240° 4 kt METAR EBFN 192225Z AUTO 24004KT 9999 NCD 13/11 Q1022 BLU

19 mai 2022

Temps Code Temps Temp. Vue Des nuages Vent METAR/SPECI
23:55
V
14 °C 10 km+ - 240°   240° 4 kt METAR EBFN 192155Z AUTO 24004KT 9999 NCD 14/11 Q1022 BLU
23:25
V
14 °C 10 km+ - 220°   220° 5 kt METAR EBFN 192125Z AUTO 22005KT 9999 SCT240/// 14/12 Q1021 BLU
22:55
V
14 °C 10 km+ - 210°   210° 3 kt METAR EBFN 192055Z AUTO 21003KT 9999 FEW024/// 14/12 Q1021 BLU
22:25
V
14 °C 10 km+ - Var   Var 2 kt METAR EBFN 192025Z AUTO VRB02KT 9999 FEW025/// 14/12 Q1022 BLU
21:55
M
15 °C 10 km+ 2.500 ft 270°   270° 3 kt METAR EBFN 191955Z AUTO 27003KT 9999 BKN025/// 15/12 Q1021 BLU
21:51
M
15 °C 10 km+ 2.500 ft Var   Var 2 kt METAR EBFN 191951Z AUTO VRB02KT 9999 BKN025/// 15/12 Q1021 BLU
21:36
V
15 °C 10 km+ - 270°   270° 3 kt METAR EBFN 191936Z AUTO 27003KT 9999 SCT024/// 15/12 Q1021 WHT
21:25
V
15 °C 10 km+ - Var   Var 2 kt METAR EBFN 191925Z AUTO VRB02KT 9999 FEW025/// 15/12 Q1021 BLU
20:55
V
16 °C 10 km+ - 280°   280° 4 kt METAR EBFN 191855Z AUTO 28004KT 9999 NCD 16/12 Q1021 BLU
20:25
V
17 °C 10 km+ - 300°   300° 4 kt METAR EBFN 191825Z AUTO 30004KT 9999 NCD 17/13 Q1021 BLU
19:55
V
17 °C 10 km+ - 300°   300° 4 kt METAR EBFN 191755Z AUTO 30004KT 9999 NCD 17/13 Q1020 BLU
19:25
V
17 °C 10 km+ - 300°   300° 7 kt METAR EBFN 191725Z AUTO 30007KT 9999 FEW035/// 17/13 Q1021 BLU
18:55
V
17 °C 10 km+ - 310°   310° 8 kt METAR EBFN 191655Z AUTO 31008KT 9999 FEW037/// 17/13 Q1020 BLU
18:25
V
18 °C 10 km+ - 320°   320° 8 kt METAR EBFN 191625Z AUTO 32008KT 9999 NCD 18/13 Q1020 BLU
17:55
V
18 °C 10 km+ - 320°   320° 8 kt METAR EBFN 191555Z AUTO 32008KT 9999 NCD 18/13 Q1020 BLU
17:25
V
19 °C 10 km+ - 300°   300° 10 kt METAR EBFN 191525Z AUTO 30010KT 9999 NCD 19/13 Q1020 BLU
16:55
V
19 °C 10 km+ - 280°   280° 10 kt METAR EBFN 191455Z AUTO 28010KT 9999 NCD 19/12 Q1020 BLU
16:35
V
19 °C 10 km+ - 280°   280° 12 kt METAR EBFN 191435Z 28012KT 9999 FEW025 19/12 Q1020 BLU FCST CANCEL
16:25
V
19 °C 10 km+ - 280°   280° 13 kt METAR EBFN 191425Z 28013KT 9999 FEW025 19/13 Q1020 BLU BLU
15:55
V
19 °C 10 km+ - 270°   270° 14 kt METAR EBFN 191355Z 27014KT 9999 FEW025 19/12 Q1019 BLU BLU
15:25
V
17 °C 10 km+ - 270°   270° 15 kt METAR EBFN 191325Z 27015KT 9999 FEW025 17/11 Q1019 BLU BLU
14:55
V
18 °C 10 km+ - 270°   270° 17 kt METAR EBFN 191255Z 27017KT 9999 FEW006 SCT025 18/14 Q1018 BLU BLU
14:33
M
16 °C 10 km+ 2.500 ft 280°   280° 14 kt METAR EBFN 191233Z 28014KT 9999 FEW005 BKN025 16/15 Q1018 BLU BLU TEMPO GRN
14:25
M
18 °C 10 km+ 2.500 ft 280°   280° 12 kt METAR EBFN 191225Z 28012KT 9999 FEW010 BKN025 18/16 Q1018 BLU BLU
13:55
V
18 °C 10 km+ 8.000 ft 240°   240° 9 kt METAR EBFN 191155Z 24009KT 9999 FEW007 FEW023TCU BKN080 18/16 Q1017 BLU BLU
12:55
V
16 °C 10 km+ 8.000 ft 250°   250° 3 kt METAR EBFN 191055Z 25003KT 9999 -SHRA FEW004 FEW035CB BKN080 16/16 Q1017 BLU BLU TEMPO GRN
11:03
M
16 °C 7 km 5.000 ft 280°   280° 12 kt METAR EBFN 190903Z 28012KT 7000 -SHRA FEW007 FEW030CB BKN050 16/15 Q1018 WHT WHT TEMPO GRN
10:33
M
17 °C 5 km 5.000 ft Var   Var 2 kt METAR EBFN 190833Z VRB02KT 5000 -SHRA FEW035CB BKN050 17/16 Q1016 WHT WHT TEMPO GRN
00:55
V
16 °C 9 km - 100°   100° 5 kt METAR EBFN 182255Z AUTO 10005KT 9000 NCD 16/14 Q1016 BLU
00:24
V
17 °C 10 km+ 25.000 ft 100°   100° 5 kt METAR EBFN 182224Z 10005KT 9999 FEW080 BKN250 17/14 Q1016 BLU FCST CANCEL

18 mai 2022

Temps Code Temps Temp. Vue Des nuages Vent METAR/SPECI
23:55
V
17 °C 10 km+ 25.000 ft 110°   110° 5 kt METAR EBFN 182155Z 11005KT 9999 FEW080 BKN250 17/14 Q1017 BLU BLU
23:25
V
17 °C 10 km+ 25.000 ft 110°   110° 7 kt METAR EBFN 182125Z 11007KT 9999 FEW080 BKN250 17/14 Q1017 BLU BLU
22:55
V
16 °C 10 km+ - 120°   120° 5 kt METAR EBFN 182055Z 12005KT 9999 FEW080 SCT250 16/13 Q1017 BLU BLU
22:25
V
16 °C 10 km+ - 110°   110° 4 kt METAR EBFN 182025Z 11004KT 9999 FEW080 SCT250 16/13 Q1017 BLU BLU
21:55
V
17 °C 10 km+ 25.000 ft 100°   100° 3 kt METAR EBFN 181955Z 10003KT 9999 FEW080 BKN250 17/13 Q1018 BLU BLU
21:25
V
18 °C 10 km+ 25.000 ft 080°   080° 5 kt METAR EBFN 181925Z 08005KT 9999 FEW080 BKN250 18/12 Q1018 BLU BLU
20:55
V
19 °C 10 km+ 25.000 ft 080°   080° 5 kt METAR EBFN 181855Z 08005KT 9999 FEW080 BKN250 19/12 Q1018 BLU BLU
20:25
V
19 °C 10 km+ 25.000 ft 080°   080° 6 kt METAR EBFN 181825Z 08006KT 9999 FEW080 BKN250 19/11 Q1018 BLU BLU
19:55
V
20 °C 10 km+ 25.000 ft 050°   050° 6 kt METAR EBFN 181755Z 05006KT 9999 FEW080 BKN250 20/12 Q1019 BLU BLU
19:25
V
20 °C 10 km+ 25.000 ft 040°   040° 6 kt METAR EBFN 181725Z 04006KT 9999 FEW040 BKN250 20/11 Q1019 BLU BLU
18:55
V
20 °C 10 km+ - 040°   040° 6 kt METAR EBFN 181655Z 04006KT 9999 FEW040 SCT250 20/11 Q1019 BLU BLU
18:25
V
20 °C 10 km+ - 030°   030° 7 kt METAR EBFN 181625Z 03007KT 9999 FEW040 SCT250 20/10 Q1019 BLU BLU
17:55
V
20 °C 10 km+ - 020°   020° 8 kt METAR EBFN 181555Z 02008KT 9999 FEW040 SCT250 20/10 Q1020 BLU BLU
17:25
V
20 °C 10 km+ - 030°   030° 7 kt METAR EBFN 181525Z 03007KT 9999 SCT240 20/10 Q1020 BLU BLU
16:55
V
20 °C 10 km+ - 010°   010° 7 kt METAR EBFN 181455Z 01007KT 9999 SCT240 20/10 Q1020 BLU BLU
Données plus anciennes

Télécharge notre application

Un accès facile à toute la météo aéronautique sur ton téléphone portable et ta tablette.
Avec de nombreuses fonctionnalités non disponibles sur le site Web, comme la prise en charge hors ligne et une liste personnelle d'aéroports.

Nous et des tiers suivons ton comportement sur Internet sur notre site Web à l'aide de cookies. Si tu continues, nous supposons que tu acceptes notre politique en matière de cookies. Apprendre plus